Weather at Nuremberg Airport

Public forecast

Using degrees Celsius for public forecast. Weather courtesy of forecast.io.

Current aviation weather report (METAR) for Nuremberg Airport

Retrieved 2021/03/04 04:20 UTC (17 minutes ago):

EDDN 040420Z 11006KT CAVOK 04/02 Q1021

Aviation forecast (TAF) for Nuremberg Airport

Forecast is more than 6 hours old.

Retrieved 2021/03/03 18:27 UTC (10 hours ago):

TAF EDDN 031700Z 0318/0418 12004KT CAVOK BECMG 0410/0412 27009KT PROB30 TEMPO 0416/0418 SHRA SCT020 BKN040TCU